createdAt,value
2023-03-04T00:02:17.926Z,16.57
2023-03-04T00:04:46.007Z,17.20
2023-03-04T00:07:21.096Z,17.50
2023-03-04T00:10:00.556Z,18.53
2023-03-04T00:12:33.672Z,16.73
2023-03-04T00:15:03.781Z,17.80
2023-03-04T00:17:32.371Z,16.77
2023-03-04T00:20:03.542Z,16.67
2023-03-04T00:22:31.619Z,17.60
2023-03-04T00:25:03.263Z,17.40
2023-03-04T00:27:33.416Z,18.83
2023-03-04T00:30:11.406Z,18.23
2023-03-04T00:32:39.550Z,16.97
2023-03-04T00:35:10.207Z,17.90
2023-03-04T00:37:54.436Z,18.00
2023-03-04T00:40:36.921Z,19.03
2023-03-04T00:43:05.074Z,17.77
2023-03-04T00:45:40.117Z,17.47
2023-03-04T00:48:08.309Z,18.90
2023-03-04T00:50:37.359Z,18.10
2023-03-04T00:53:05.913Z,20.30
2023-03-04T00:55:42.256Z,18.37
2023-03-04T00:58:12.283Z,17.47
2023-03-04T01:00:44.442Z,18.97
2023-03-04T01:03:12.445Z,19.40
2023-03-04T01:05:40.633Z,19.87
2023-03-04T01:08:08.734Z,18.50
2023-03-04T01:10:36.733Z,19.37
2023-03-04T01:13:09.110Z,18.87
2023-03-04T01:15:39.130Z,18.73
2023-03-04T01:18:07.448Z,20.00
2023-03-04T01:20:44.467Z,18.63
2023-03-04T01:23:12.647Z,18.93
2023-03-04T01:25:40.646Z,17.23
2023-03-04T01:28:10.418Z,18.30
2023-03-04T01:30:39.181Z,19.87
2023-03-04T01:33:10.485Z,19.53
2023-03-04T01:35:38.509Z,18.97
2023-03-04T01:38:06.641Z,17.43
2023-03-04T01:40:34.871Z,19.97
2023-03-04T01:43:16.478Z,16.70
2023-03-04T01:45:44.583Z,18.80
2023-03-04T01:48:15.943Z,16.53
2023-03-04T01:50:44.007Z,19.63
2023-03-04T01:53:19.944Z,17.70
2023-03-04T01:55:48.308Z,17.57
2023-03-04T01:58:34.783Z,18.17
2023-03-04T02:01:02.818Z,16.27
2023-03-04T02:03:31.207Z,17.90
2023-03-04T02:05:59.292Z,18.07
2023-03-04T02:08:38.124Z,18.90
2023-03-04T02:11:06.337Z,18.63
2023-03-04T02:13:35.828Z,17.10
2023-03-04T02:16:03.890Z,20.27
2023-03-04T02:18:32.046Z,18.40
2023-03-04T02:21:08.944Z,18.53
2023-03-04T02:23:43.656Z,19.40
2023-03-04T02:26:18.552Z,18.70
2023-03-04T02:28:48.591Z,17.83
2023-03-04T02:31:25.538Z,17.43
2023-03-04T02:33:55.630Z,19.27
2023-03-04T02:36:24.203Z,18.13
2023-03-04T02:38:55.238Z,19.80
2023-03-04T02:41:27.586Z,18.30
2023-03-04T02:43:57.145Z,17.40
2023-03-04T02:46:25.185Z,18.53
2023-03-04T02:48:54.352Z,18.33
2023-03-04T02:51:22.849Z,18.17
2023-03-04T02:53:50.911Z,17.93
2023-03-04T02:56:18.875Z,19.47
2023-03-04T02:58:48.560Z,20.10
2023-03-04T03:01:29.774Z,19.60
2023-03-04T03:03:58.374Z,18.50
2023-03-04T03:06:26.384Z,20.50
2023-03-04T03:08:54.312Z,18.37
2023-03-04T03:11:22.294Z,17.67
2023-03-04T03:13:54.910Z,20.10
2023-03-04T03:16:23.072Z,19.40
2023-03-04T03:18:51.335Z,18.43
2023-03-04T03:21:19.562Z,18.83
2023-03-04T03:23:55.492Z,19.60
2023-03-04T03:26:23.477Z,19.50
2023-03-04T03:28:51.466Z,15.90
2023-03-04T03:31:20.906Z,17.60
2023-03-04T03:33:49.956Z,18.20
2023-03-04T03:36:17.952Z,16.53
2023-03-04T03:38:45.937Z,18.57
2023-03-04T03:41:14.409Z,19.10
2023-03-04T03:43:42.344Z,18.33
2023-03-04T03:46:21.758Z,19.33
2023-03-04T03:48:49.746Z,18.60
2023-03-04T03:51:18.779Z,16.77
2023-03-04T03:53:46.772Z,17.77
2023-03-04T03:56:14.961Z,19.30
2023-03-04T03:58:54.139Z,17.87
2023-03-04T04:01:23.570Z,18.87
2023-03-04T04:03:51.545Z,18.80
2023-03-04T04:06:19.568Z,19.03
2023-03-04T04:08:47.680Z,18.53
2023-03-04T04:11:20.701Z,18.63
2023-03-04T04:13:48.695Z,19.63
2023-03-04T04:16:17.757Z,18.90
2023-03-04T04:18:47.142Z,19.10
2023-03-04T04:21:15.707Z,18.00
2023-03-04T04:23:44.807Z,18.13
2023-03-04T04:26:12.940Z,18.00
2023-03-04T04:28:41.204Z,19.27
2023-03-04T04:31:09.932Z,17.40
2023-03-04T04:33:38.393Z,17.90
2023-03-04T04:36:17.404Z,18.30
2023-03-04T04:38:46.112Z,18.83
2023-03-04T04:41:22.903Z,18.07
2023-03-04T04:43:50.962Z,19.60
2023-03-04T04:46:19.144Z,19.47
2023-03-04T04:48:47.444Z,19.03
2023-03-04T04:51:22.022Z,18.33
2023-03-04T04:53:50.096Z,20.70
2023-03-04T04:56:20.601Z,20.23
2023-03-04T04:58:49.448Z,18.17
2023-03-04T05:01:17.821Z,17.33
2023-03-04T05:03:45.956Z,17.83
2023-03-04T05:06:14.444Z,18.17
2023-03-04T05:08:44.126Z,17.77
2023-03-04T05:11:12.316Z,18.43
2023-03-04T05:13:40.393Z,17.00
2023-03-04T05:16:09.224Z,20.37
2023-03-04T05:18:37.286Z,18.53
2023-03-04T05:21:05.933Z,17.00
2023-03-04T05:23:46.210Z,17.77
2023-03-04T05:26:15.666Z,15.93
2023-03-04T05:28:43.712Z,19.43
2023-03-04T05:31:11.878Z,19.43
2023-03-04T05:33:40.514Z,19.83
2023-03-04T05:36:09.623Z,20.27
2023-03-04T05:38:37.794Z,19.03
2023-03-04T05:41:08.560Z,20.07
2023-03-04T05:43:45.340Z,17.00
2023-03-04T05:46:15.748Z,18.20
2023-03-04T05:48:43.918Z,21.43
2023-03-04T05:51:12.307Z,20.33
2023-03-04T05:53:40.263Z,21.63
2023-03-04T05:56:11.406Z,19.13
2023-03-04T05:58:40.569Z,19.20
2023-03-04T06:01:16.653Z,21.73
2023-03-04T06:03:44.738Z,19.93
2023-03-04T06:06:14.765Z,19.17
2023-03-04T06:08:42.793Z,21.73
2023-03-04T06:11:12.199Z,22.37
2023-03-04T06:13:40.236Z,19.77
2023-03-04T06:16:10.663Z,21.17
2023-03-04T06:18:39.262Z,24.20
2023-03-04T06:21:07.546Z,24.27
2023-03-04T06:23:35.665Z,21.40
2023-03-04T06:26:04.411Z,20.13
2023-03-04T06:28:46.005Z,21.07
2023-03-04T06:31:14.118Z,21.47
2023-03-04T06:33:42.228Z,22.20
2023-03-04T06:36:21.237Z,23.30
2023-03-04T06:38:49.422Z,21.30
2023-03-04T06:41:17.605Z,23.50
2023-03-04T06:43:47.064Z,23.83
2023-03-04T06:46:15.126Z,22.87
2023-03-04T06:48:43.331Z,24.43
2023-03-04T06:51:13.078Z,23.57
2023-03-04T06:53:41.652Z,23.13
2023-03-04T06:56:11.956Z,23.67
2023-03-04T06:58:40.209Z,22.53
2023-03-04T07:01:15.046Z,23.70
2023-03-04T07:03:52.329Z,22.50
2023-03-04T07:06:23.591Z,22.17
2023-03-04T07:09:04.502Z,22.67
2023-03-04T07:11:32.600Z,24.47
2023-03-04T07:14:17.725Z,24.00
2023-03-04T07:16:54.487Z,21.67
2023-03-04T07:19:33.485Z,21.90
2023-03-04T07:22:07.702Z,20.93
2023-03-04T07:24:42.676Z,20.83
2023-03-04T07:27:10.682Z,18.70
2023-03-04T07:29:40.745Z,19.70
2023-03-04T07:32:11.322Z,20.63
2023-03-04T07:34:39.537Z,19.80
2023-03-04T07:37:07.549Z,22.27
2023-03-04T07:39:35.534Z,22.20
2023-03-04T07:42:13.416Z,21.10
2023-03-04T07:44:41.503Z,21.87
2023-03-04T07:47:12.919Z,20.50
2023-03-04T07:49:40.905Z,20.97
2023-03-04T07:52:20.133Z,21.83
2023-03-04T07:54:49.245Z,20.60
2023-03-04T07:57:18.269Z,20.20
2023-03-04T07:59:46.474Z,20.90
2023-03-04T08:02:32.644Z,22.73
2023-03-04T08:05:07.080Z,20.47
2023-03-04T08:07:42.140Z,21.67
2023-03-04T08:10:18.342Z,19.30
2023-03-04T08:12:50.439Z,20.17
2023-03-04T08:15:19.510Z,20.47
2023-03-04T08:17:57.993Z,20.33
2023-03-04T08:20:35.790Z,21.43
2023-03-04T08:23:14.497Z,19.17
2023-03-04T08:25:43.643Z,22.67
2023-03-04T08:28:18.514Z,20.30
2023-03-04T08:30:54.672Z,20.03
2023-03-04T08:33:30.231Z,21.37
2023-03-04T08:35:59.417Z,20.90
2023-03-04T08:38:53.313Z,22.13
2023-03-04T08:41:22.748Z,20.63
2023-03-04T08:43:50.701Z,20.80
2023-03-04T08:46:38.665Z,20.90
2023-03-04T08:49:08.347Z,20.90
2023-03-04T08:51:36.939Z,21.37
2023-03-04T08:54:05.576Z,23.80
2023-03-04T08:57:01.452Z,24.20
2023-03-04T08:59:36.542Z,23.03
2023-03-04T09:02:05.879Z,21.60
2023-03-04T09:04:35.422Z,22.17
2023-03-04T09:07:10.030Z,23.00
2023-03-04T09:09:38.130Z,23.20
2023-03-04T09:12:08.444Z,23.03
2023-03-04T09:14:41.569Z,21.13
2023-03-04T09:17:13.754Z,22.57
2023-03-04T09:19:43.258Z,22.97
2023-03-04T09:22:14.557Z,24.93
2023-03-04T09:25:21.148Z,24.17
2023-03-04T09:28:01.286Z,24.13
2023-03-04T09:30:42.910Z,24.43
2023-03-04T09:33:11.268Z,21.27
2023-03-04T09:35:43.655Z,22.13
2023-03-04T09:38:27.659Z,20.93
2023-03-04T09:40:57.865Z,20.70
2023-03-04T09:43:30.078Z,20.00
2023-03-04T09:46:00.179Z,21.13
2023-03-04T09:48:30.432Z,21.80
2023-03-04T09:51:10.111Z,22.80
2023-03-04T09:53:47.242Z,21.00
2023-03-04T09:56:16.068Z,21.60
2023-03-04T09:58:53.065Z,22.00
2023-03-04T10:01:25.506Z,22.63
2023-03-04T10:03:59.457Z,21.87
2023-03-04T10:06:29.703Z,21.40
2023-03-04T10:09:03.570Z,23.73
2023-03-04T10:11:36.384Z,21.97
2023-03-04T10:14:33.384Z,20.63
2023-03-04T10:17:08.103Z,23.00
2023-03-04T10:19:48.263Z,22.73
2023-03-04T10:22:38.145Z,23.33
2023-03-04T10:25:36.164Z,21.88
2023-03-04T10:28:12.528Z,22.83
2023-03-04T10:30:54.038Z,23.38
2023-03-04T10:33:23.809Z,24.38
2023-03-04T10:36:01.138Z,24.25
2023-03-04T10:38:34.281Z,21.77
2023-03-04T10:41:19.185Z,21.98
2023-03-04T10:43:51.525Z,22.05
2023-03-04T10:46:24.983Z,22.13
2023-03-04T10:48:54.862Z,22.60
2023-03-04T10:51:24.782Z,23.25
2023-03-04T10:53:59.530Z,24.00
2023-03-04T10:56:36.391Z,24.58
2023-03-04T10:59:36.490Z,25.13
2023-03-04T11:02:23.540Z,23.77
2023-03-04T11:04:56.609Z,24.08
2023-03-04T11:07:26.284Z,23.63
2023-03-04T11:09:58.319Z,25.13
2023-03-04T11:12:35.077Z,26.20
2023-03-04T11:15:03.626Z,23.55
2023-03-04T11:17:46.416Z,23.90
2023-03-04T11:20:25.653Z,26.45
2023-03-04T11:22:55.260Z,25.88
2023-03-04T11:25:29.166Z,26.77
2023-03-04T11:28:03.197Z,25.98
2023-03-04T11:30:42.453Z,26.10
2023-03-04T11:33:22.041Z,24.40
2023-03-04T11:35:59.078Z,22.80
2023-03-04T11:38:33.213Z,24.38
2023-03-04T11:41:07.156Z,26.33
2023-03-04T11:43:38.565Z,26.27
2023-03-04T11:46:43.513Z,24.65
2023-03-04T11:49:30.357Z,24.85
2023-03-04T11:52:23.471Z,25.13
2023-03-04T11:55:05.910Z,25.80
2023-03-04T11:57:48.796Z,24.15
2023-03-04T12:00:32.210Z,27.02
2023-03-04T12:03:34.258Z,24.75
2023-03-04T12:06:08.301Z,26.10
2023-03-04T12:08:51.130Z,26.42
2023-03-04T12:11:33.342Z,23.02
2023-03-04T12:14:37.453Z,23.42
2023-03-04T12:17:34.268Z,21.92
2023-03-04T12:20:40.925Z,26.67
2023-03-04T12:23:27.544Z,26.58
2023-03-04T12:26:03.961Z,27.50
2023-03-04T12:28:52.479Z,26.35
2023-03-04T12:31:40.186Z,26.95
2023-03-04T12:34:47.561Z,27.90
2023-03-04T12:37:51.411Z,24.92
2023-03-04T12:40:33.635Z,24.77
2023-03-04T12:43:41.529Z,26.23
2023-03-04T12:46:21.345Z,25.88
2023-03-04T12:49:29.684Z,24.02
2023-03-04T12:52:07.763Z,26.38
2023-03-04T12:54:50.951Z,27.02
2023-03-04T12:57:24.103Z,26.02
2023-03-04T13:00:18.134Z,24.17
2023-03-04T13:03:18.636Z,25.23
2023-03-04T13:06:05.784Z,25.27
2023-03-04T13:09:00.544Z,25.65
2023-03-04T13:11:47.349Z,25.38
2023-03-04T13:14:35.235Z,26.48
2023-03-04T13:17:43.426Z,25.30
2023-03-04T13:20:34.876Z,23.90
2023-03-04T13:23:05.058Z,24.60
2023-03-04T13:25:41.080Z,24.20
2023-03-04T13:28:24.988Z,24.90
2023-03-04T13:31:29.947Z,23.85
2023-03-04T13:34:05.040Z,23.60
2023-03-04T13:36:49.194Z,23.25
2023-03-04T13:39:33.026Z,24.33
2023-03-04T13:42:03.005Z,24.08
2023-03-04T13:44:57.132Z,24.05
2023-03-04T13:47:50.070Z,25.08
2023-03-04T13:50:37.402Z,24.27
2023-03-04T13:53:42.444Z,25.65
2023-03-04T13:56:28.737Z,22.67
2023-03-04T13:59:38.341Z,23.45
2023-03-04T14:02:17.013Z,22.02
2023-03-04T14:04:45.865Z,22.85
2023-03-04T14:07:24.972Z,23.25
2023-03-04T14:09:58.275Z,22.73
2023-03-04T14:12:28.470Z,22.90
2023-03-04T14:14:58.438Z,23.33
2023-03-04T14:17:32.178Z,22.63
2023-03-04T14:20:01.655Z,23.08
2023-03-04T14:22:31.465Z,22.00
2023-03-04T14:25:05.917Z,21.90
2023-03-04T14:27:36.221Z,21.90
2023-03-04T14:30:06.710Z,23.60
2023-03-04T14:32:36.317Z,21.13
2023-03-04T14:35:06.603Z,22.67
2023-03-04T14:37:44.266Z,23.05
2023-03-04T14:40:22.183Z,22.00
2023-03-04T14:42:56.661Z,24.15
2023-03-04T14:45:25.766Z,23.40
2023-03-04T14:47:58.540Z,22.98
2023-03-04T14:50:26.978Z,24.45
2023-03-04T14:53:15.596Z,23.17
2023-03-04T14:55:57.818Z,21.83
2023-03-04T14:58:27.935Z,22.25
2023-03-04T15:01:16.073Z,22.73
2023-03-04T15:03:54.451Z,22.63
2023-03-04T15:06:25.086Z,25.35
2023-03-04T15:08:58.463Z,24.23
2023-03-04T15:11:28.596Z,25.13
2023-03-04T15:13:58.496Z,24.42
2023-03-04T15:16:28.387Z,23.98
2023-03-04T15:19:02.130Z,22.33
2023-03-04T15:21:36.782Z,23.90
2023-03-04T15:24:06.107Z,24.00
2023-03-04T15:26:35.322Z,23.27
2023-03-04T15:29:11.428Z,20.98
2023-03-04T15:31:39.407Z,22.05
2023-03-04T15:34:14.208Z,20.83
2023-03-04T15:36:42.511Z,23.25
2023-03-04T15:39:13.829Z,21.88
2023-03-04T15:41:42.009Z,22.58
2023-03-04T15:44:12.193Z,21.92
2023-03-04T15:46:40.869Z,20.58
2023-03-04T15:49:10.262Z,23.48
2023-03-04T15:51:38.291Z,22.77
2023-03-04T15:54:08.387Z,21.98
2023-03-04T15:56:36.433Z,23.48
2023-03-04T15:59:07.922Z,22.98
2023-03-04T16:01:35.934Z,21.77
2023-03-04T16:04:04.045Z,22.75
2023-03-04T16:06:34.377Z,22.80
2023-03-04T16:09:07.060Z,21.92
2023-03-04T16:11:42.135Z,21.40
2023-03-04T16:14:11.578Z,22.50
2023-03-04T16:16:39.548Z,23.15
2023-03-04T16:19:07.651Z,22.65
2023-03-04T16:21:37.044Z,23.65
2023-03-04T16:24:05.621Z,22.35
2023-03-04T16:26:34.698Z,23.52
2023-03-04T16:29:03.272Z,23.13
2023-03-04T16:31:31.255Z,23.27
2023-03-04T16:33:59.218Z,23.25
2023-03-04T16:36:29.937Z,24.80
2023-03-04T16:39:09.377Z,23.67
2023-03-04T16:41:37.610Z,23.58
2023-03-04T16:44:05.991Z,23.17
2023-03-04T16:46:34.081Z,23.10
2023-03-04T16:49:02.119Z,23.40
2023-03-04T16:51:37.219Z,24.05
2023-03-04T16:54:08.455Z,23.73
2023-03-04T16:56:36.588Z,24.77
2023-03-04T16:59:04.558Z,23.98
2023-03-04T17:01:34.019Z,21.98
2023-03-04T17:04:02.057Z,25.27
2023-03-04T17:06:30.030Z,24.48
2023-03-04T17:08:58.048Z,23.90
2023-03-04T17:11:27.374Z,24.02
2023-03-04T17:13:55.394Z,23.50
2023-03-04T17:16:23.977Z,22.83
2023-03-04T17:18:52.134Z,23.00
2023-03-04T17:21:22.091Z,21.70
2023-03-04T17:23:50.833Z,23.87
2023-03-04T17:26:20.953Z,24.00
2023-03-04T17:28:51.832Z,23.00
2023-03-04T17:31:21.602Z,24.90
2023-03-04T17:33:50.310Z,23.70
2023-03-04T17:36:19.810Z,23.27
2023-03-04T17:38:48.129Z,22.57
2023-03-04T17:41:18.602Z,23.07
2023-03-04T17:43:47.789Z,22.93
2023-03-04T17:46:19.443Z,21.97
2023-03-04T17:48:47.489Z,22.73
2023-03-04T17:51:15.924Z,23.07
2023-03-04T17:53:43.978Z,21.27
2023-03-04T17:56:13.524Z,21.43
2023-03-04T17:58:42.003Z,22.07
2023-03-04T18:01:19.386Z,23.27
2023-03-04T18:03:47.956Z,24.63
2023-03-04T18:06:17.056Z,24.03
2023-03-04T18:08:45.383Z,20.63
2023-03-04T18:11:13.783Z,19.93
2023-03-04T18:13:43.786Z,17.93
2023-03-04T18:16:14.794Z,17.87
2023-03-04T18:18:44.497Z,15.90
2023-03-04T18:21:13.558Z,15.10
2023-03-04T18:23:41.577Z,14.85
2023-03-04T18:26:09.618Z,12.93
2023-03-04T18:28:37.626Z,12.73
2023-03-04T18:31:05.878Z,12.07
2023-03-04T18:33:34.443Z,13.97
2023-03-04T18:36:06.303Z,9.73
2023-03-04T18:38:34.743Z,10.33
2023-03-04T18:41:06.949Z,11.60
2023-03-04T18:43:35.430Z,11.97
2023-03-04T18:46:05.998Z,11.23
2023-03-04T18:48:38.514Z,11.03
2023-03-04T18:51:08.448Z,12.50
2023-03-04T18:53:36.446Z,11.90
2023-03-04T18:56:12.394Z,11.97
2023-03-04T18:58:42.992Z,11.20
2023-03-04T19:01:13.095Z,11.37
2023-03-04T19:03:42.333Z,11.40
2023-03-04T19:06:11.883Z,12.50
2023-03-04T19:08:39.872Z,13.20
2023-03-04T19:11:07.883Z,12.53
2023-03-04T19:13:35.912Z,13.10
2023-03-04T19:16:03.991Z,12.50
2023-03-04T19:18:31.982Z,12.83
2023-03-04T19:21:01.228Z,13.37
2023-03-04T19:23:31.787Z,13.67
2023-03-04T19:25:59.846Z,13.03
2023-03-04T19:28:27.880Z,13.17
2023-03-04T19:30:59.062Z,13.50
2023-03-04T19:33:27.406Z,14.17
2023-03-04T19:35:55.456Z,13.10
2023-03-04T19:38:23.704Z,13.57
2023-03-04T19:40:53.048Z,14.50
2023-03-04T19:43:21.386Z,14.10
2023-03-04T19:45:54.410Z,12.83
2023-03-04T19:48:22.703Z,13.83
2023-03-04T19:50:51.054Z,13.43
2023-03-04T19:53:19.375Z,14.87
2023-03-04T19:55:49.051Z,14.40
2023-03-04T19:58:18.371Z,14.07
2023-03-04T20:00:46.873Z,14.50
2023-03-04T20:03:15.262Z,13.30
2023-03-04T20:05:43.255Z,15.03
2023-03-04T20:08:11.225Z,14.00
2023-03-04T20:10:40.975Z,15.10
2023-03-04T20:13:10.543Z,13.80
2023-03-04T20:15:43.477Z,12.30
2023-03-04T20:18:11.492Z,15.00
2023-03-04T20:20:39.862Z,13.37
2023-03-04T20:23:09.341Z,12.40
2023-03-04T20:25:37.798Z,14.00
2023-03-04T20:28:06.151Z,13.87
2023-03-04T20:30:34.121Z,15.40
2023-03-04T20:33:03.468Z,12.90
2023-03-04T20:35:31.523Z,13.70
2023-03-04T20:37:59.537Z,14.30
2023-03-04T20:40:27.514Z,12.90
2023-03-04T20:42:55.459Z,14.37
2023-03-04T20:45:24.789Z,14.77
2023-03-04T20:47:52.836Z,13.93
2023-03-04T20:50:22.398Z,13.70
2023-03-04T20:52:50.421Z,12.43
2023-03-04T20:55:19.169Z,13.93
2023-03-04T20:57:49.396Z,13.17
2023-03-04T21:00:17.921Z,14.33
2023-03-04T21:02:45.985Z,12.40
2023-03-04T21:05:14.056Z,14.47
2023-03-04T21:07:43.379Z,13.70
2023-03-04T21:10:11.895Z,12.63
2023-03-04T21:12:39.930Z,13.30
2023-03-04T21:15:09.265Z,14.43
2023-03-04T21:17:37.320Z,13.57
2023-03-04T21:20:06.113Z,12.20
2023-03-04T21:22:34.083Z,13.43
2023-03-04T21:25:03.445Z,12.77
2023-03-04T21:27:31.398Z,11.53
2023-03-04T21:29:59.359Z,12.17
2023-03-04T21:32:29.219Z,12.57
2023-03-04T21:34:57.526Z,12.73
2023-03-04T21:37:26.917Z,13.17
2023-03-04T21:39:55.400Z,11.33
2023-03-04T21:42:24.791Z,13.30
2023-03-04T21:44:52.800Z,11.53
2023-03-04T21:47:21.158Z,12.77
2023-03-04T21:49:49.279Z,13.20
2023-03-04T21:52:18.400Z,12.17
2023-03-04T21:54:46.494Z,12.97
2023-03-04T21:57:14.836Z,13.20
2023-03-04T21:59:44.310Z,11.90
2023-03-04T22:02:16.734Z,12.00
2023-03-04T22:04:44.791Z,11.17
2023-03-04T22:07:13.000Z,11.77
2023-03-04T22:09:41.127Z,12.33
2023-03-04T22:12:09.476Z,12.23
2023-03-04T22:14:37.461Z,12.77
2023-03-04T22:17:07.047Z,11.80
2023-03-04T22:19:35.066Z,11.80
2023-03-04T22:22:03.024Z,11.10
2023-03-04T22:24:31.141Z,11.50
2023-03-04T22:26:59.965Z,13.70
2023-03-04T22:29:28.008Z,12.33
2023-03-04T22:31:56.274Z,11.40
2023-03-04T22:34:25.683Z,10.87
2023-03-04T22:36:53.637Z,11.07
2023-03-04T22:39:23.107Z,11.53
2023-03-04T22:41:51.278Z,10.90
2023-03-04T22:44:19.339Z,11.13
2023-03-04T22:46:47.464Z,10.60
2023-03-04T22:49:16.138Z,10.97
2023-03-04T22:51:46.182Z,12.13
2023-03-04T22:54:15.432Z,11.70
2023-03-04T22:56:43.659Z,11.30
2023-03-04T22:59:12.562Z,10.10
2023-03-04T23:01:40.680Z,10.10
2023-03-04T23:04:08.865Z,10.93
2023-03-04T23:06:37.638Z,10.17
2023-03-04T23:09:07.756Z,10.53
2023-03-04T23:11:36.519Z,10.47
2023-03-04T23:14:07.323Z,10.87
2023-03-04T23:16:37.378Z,10.73
2023-03-04T23:19:06.356Z,10.47
2023-03-04T23:21:34.619Z,10.00
2023-03-04T23:24:03.669Z,11.00
2023-03-04T23:26:35.012Z,9.87
2023-03-04T23:29:05.243Z,12.03
2023-03-04T23:31:34.949Z,12.27
2023-03-04T23:34:03.496Z,11.10
2023-03-04T23:36:34.301Z,10.80
2023-03-04T23:39:03.526Z,11.33
2023-03-04T23:41:34.333Z,10.57
2023-03-04T23:44:02.542Z,10.03
2023-03-04T23:46:31.673Z,10.17
2023-03-04T23:48:59.877Z,11.40
2023-03-04T23:51:29.828Z,10.73
2023-03-04T23:53:58.878Z,9.93
2023-03-04T23:56:28.984Z,10.83
2023-03-04T23:58:59.057Z,11.33
